Time;durP1;ratioP1;P1;durP2;ratioP2;P2;SDS_P1;SDS_P2;PMS_P1;PMS_P2;Temp;Humidity;BMP_temperature;BMP_pressure;BME280_temperature;BME280_humidity;BME280_pressure;Samples;Min_cycle;Max_cycle;Signal;HPM_P1;HPM_P2
2023/12/27 00:02:04;;;;;;;5.17;4.93;;;10.80;28.80;;;;;;4998663;28;20638;-58
2023/12/27 00:04:30;;;;;;;4.90;4.60;;;10.80;28.60;;;;;;4981185;28;20209;-59
2023/12/27 00:06:56;;;;;;;5.37;5.07;;;10.80;28.70;;;;;;4981254;28;20174;-58
2023/12/27 00:09:23;;;;;;;4.87;4.67;;;10.80;28.70;;;;;;4980731;28;20178;-59
2023/12/27 00:11:49;;;;;;;5.00;4.70;;;10.80;28.70;;;;;;4981211;28;20413;-59
2023/12/27 00:14:15;;;;;;;4.93;4.63;;;10.80;28.60;;;;;;4981055;28;20789;-58
2023/12/27 00:16:40;;;;;;;5.57;5.17;;;10.80;28.40;;;;;;4980947;28;20906;-58
2023/12/27 00:19:06;;;;;;;5.13;4.73;;;10.90;28.30;;;;;;4977183;28;20248;-58
2023/12/27 00:21:32;;;;;;;4.63;4.33;;;10.90;28.30;;;;;;4978003;28;20193;-58
2023/12/27 00:23:58;;;;;;;4.63;4.43;;;10.90;28.20;;;;;;4995371;28;20468;-58
2023/12/27 00:26:23;;;;;;;5.50;5.10;;;11.10;28.00;;;;;;4995383;28;20410;-58
2023/12/27 00:28:49;;;;;;;4.90;4.60;;;11.10;27.70;;;;;;4977488;28;20182;-59
2023/12/27 00:31:15;;;;;;;4.80;4.60;;;11.20;27.70;;;;;;4977591;28;20194;-58
2023/12/27 00:33:40;;;;;;;5.37;5.07;;;11.20;27.30;;;;;;4977816;28;20228;-58
2023/12/27 00:36:08;;;;;;;5.10;4.80;;;11.10;27.70;;;;;;4977842;28;20613;-59
2023/12/27 00:38:37;;;;;;;5.40;4.90;;;11.00;27.90;;;;;;4995278;28;20545;-59
2023/12/27 00:41:04;;;;;;;5.57;5.13;;;10.90;28.10;;;;;;4977128;28;20417;-58
2023/12/27 00:43:29;;;;;;;4.43;4.23;;;10.90;28.30;;;;;;4977419;28;20483;-58
2023/12/27 00:45:55;;;;;;;5.00;4.60;;;11.00;28.10;;;;;;4977751;28;20417;-58
2023/12/27 00:48:21;;;;;;;5.07;4.77;;;11.20;28.00;;;;;;4977500;28;20324;-59
2023/12/27 00:50:46;;;;;;;5.10;4.80;;;11.30;27.40;;;;;;4977144;28;20182;-58
2023/12/27 00:53:12;;;;;;;4.40;4.20;;;11.40;26.80;;;;;;4977058;28;20709;-58
2023/12/27 00:55:38;;;;;;;5.70;4.47;;;11.40;26.90;;;;;;4977404;28;20174;-58
2023/12/27 00:58:04;;;;;;;4.70;4.40;;;11.30;26.90;;;;;;4961212;28;20925;-58
2023/12/27 01:00:29;;;;;;;4.93;4.73;;;11.10;27.50;;;;;;4976591;28;20181;-57
2023/12/27 01:02:55;;;;;;;4.70;4.30;;;11.10;27.80;;;;;;4977147;28;20181;-58
2023/12/27 01:05:20;;;;;;;5.10;4.80;;;11.10;27.50;;;;;;4976938;28;20214;-57
2023/12/27 01:07:46;;;;;;;5.30;4.90;;;11.10;27.50;;;;;;4977162;28;20178;-57
2023/12/27 01:10:14;;;;;;;8.87;4.77;;;11.00;27.70;;;;;;4976495;28;20184;-57
2023/12/27 01:12:40;;;;;;;5.27;5.07;;;11.00;27.70;;;;;;4976793;28;20179;-57
2023/12/27 01:15:06;;;;;;;5.40;5.00;;;10.90;27.90;;;;;;4976950;28;20974;-57
2023/12/27 01:17:31;;;;;;;5.00;4.80;;;10.90;28.40;;;;;;4994258;28;20447;-57
2023/12/27 01:19:57;;;;;;;4.87;4.67;;;10.90;28.30;;;;;;4976298;28;20421;-57
2023/12/27 01:22:22;;;;;;;5.10;4.70;;;11.00;28.10;;;;;;4976672;28;20182;-57
2023/12/27 01:24:48;;;;;;;5.30;5.10;;;11.10;28.00;;;;;;4976674;28;20209;-57
2023/12/27 01:27:14;;;;;;;5.23;5.03;;;11.20;27.50;;;;;;4976681;28;20272;-58
2023/12/27 01:29:39;;;;;;;6.27;5.77;;;11.30;27.10;;;;;;4992527;28;20301;-58
2023/12/27 01:32:05;;;;;;;5.13;4.83;;;11.40;27.10;;;;;;4976413;28;20198;-58
2023/12/27 01:34:31;;;;;;;5.53;5.23;;;11.60;26.70;;;;;;4976412;28;20190;-57
2023/12/27 01:36:56;;;;;;;5.27;4.77;;;11.60;26.30;;;;;;4976686;28;20182;-58
2023/12/27 01:39:22;;;;;;;5.40;5.00;;;11.80;26.00;;;;;;4976050;28;20204;-57
2023/12/27 01:41:48;;;;;;;4.40;4.20;;;11.90;25.60;;;;;;4976356;28;20240;-57
2023/12/27 01:44:14;;;;;;;4.80;4.60;;;11.90;25.40;;;;;;4976265;28;20464;-57
2023/12/27 01:46:39;;;;;;;5.40;5.10;;;12.00;25.40;;;;;;4976365;28;20178;-58
2023/12/27 01:49:05;;;;;;;5.10;4.90;;;12.00;25.10;;;;;;4976001;28;20185;-58
2023/12/27 01:51:31;;;;;;;6.07;5.20;;;12.00;24.80;;;;;;4976147;28;20237;-58
2023/12/27 01:54:00;;;;;;;5.67;5.00;;;12.10;24.60;;;;;;4976310;28;20489;-58
2023/12/27 01:56:26;;;;;;;5.13;4.77;;;12.10;24.60;;;;;;4976122;28;20537;-58
2023/12/27 01:58:52;;;;;;;5.50;5.13;;;12.20;24.70;;;;;;4975641;28;20515;-58
2023/12/27 02:01:18;;;;;;;5.50;5.20;;;12.20;24.70;;;;;;4976136;28;20178;-58
2023/12/27 02:03:43;;;;;;;5.20;4.90;;;12.20;24.70;;;;;;4976404;28;21352;-58
2023/12/27 02:06:10;;;;;;;5.73;5.43;;;12.10;24.70;;;;;;4976295;28;20265;-58
2023/12/27 02:08:35;;;;;;;6.00;5.77;;;12.00;24.80;;;;;;4976231;28;20654;-58
2023/12/27 02:11:01;;;;;;;6.00;5.63;;;11.90;25.30;;;;;;4975793;28;20417;-58
2023/12/27 02:13:26;;;;;;;5.03;4.73;;;12.00;25.20;;;;;;4976052;28;20216;-59
2023/12/27 02:15:53;;;;;;;5.40;4.93;;;12.00;25.00;;;;;;4976090;28;20178;-59
2023/12/27 02:18:20;;;;;;;5.40;5.10;;;12.10;24.60;;;;;;4975876;28;20205;-58
2023/12/27 02:20:46;;;;;;;5.30;5.00;;;12.10;24.60;;;;;;4975601;28;20535;-59
2023/12/27 02:23:15;;;;;;;5.00;4.73;;;12.10;24.60;;;;;;4975760;28;20508;-58
2023/12/27 02:25:42;;;;;;;4.77;4.47;;;12.20;24.70;;;;;;4975831;28;20782;-58
2023/12/27 02:28:08;;;;;;;4.90;4.60;;;12.10;24.60;;;;;;4975854;28;20936;-58
2023/12/27 02:30:36;;;;;;;5.40;5.10;;;12.10;24.60;;;;;;4975325;28;20429;-58
2023/12/27 02:33:02;;;;;;;5.40;5.00;;;12.00;24.60;;;;;;4975572;28;20239;-58
2023/12/27 02:35:28;;;;;;;5.67;5.37;;;11.80;25.10;;;;;;4975342;28;20421;-57
2023/12/27 02:37:53;;;;;;;5.20;5.00;;;11.70;25.30;;;;;;4975548;28;20424;-57
2023/12/27 02:40:19;;;;;;;5.33;4.87;;;11.60;25.70;;;;;;4991897;28;20178;-57
2023/12/27 02:42:45;;;;;;;5.10;4.80;;;11.70;26.10;;;;;;4975311;28;20186;-57
2023/12/27 02:45:10;;;;;;;5.07;4.87;;;11.70;25.70;;;;;;4975362;28;20275;-57
2023/12/27 02:47:36;;;;;;;5.60;5.10;;;11.80;25.60;;;;;;4975498;28;20590;-57
2023/12/27 02:50:03;;;;;;;5.40;5.10;;;11.90;25.40;;;;;;4974766;28;20205;-57
2023/12/27 02:52:28;;;;;;;5.70;5.50;;;11.90;25.40;;;;;;4975157;28;20261;-57
2023/12/27 02:54:55;;;;;;;7.27;6.77;;;12.00;25.90;;;;;;4975129;28;20524;-58
2023/12/27 02:57:21;;;;;;;6.40;5.90;;;12.00;26.30;;;;;;4975214;28;20236;-57
2023/12/27 02:59:47;;;;;;;6.47;6.17;;;12.00;26.60;;;;;;4974670;28;20425;-57
2023/12/27 03:02:12;;;;;;;6.00;5.77;;;12.00;26.90;;;;;;4975035;28;20792;-57
2023/12/27 03:04:38;;;;;;;6.90;6.40;;;12.00;26.90;;;;;;4973762;28;20236;-57
2023/12/27 03:07:03;;;;;;;6.27;5.90;;;12.00;26.80;;;;;;4975284;28;20450;-57
2023/12/27 03:09:30;;;;;;;6.63;6.13;;;12.00;27.10;;;;;;4992070;28;20630;-57
2023/12/27 03:11:56;;;;;;;6.37;6.07;;;12.00;27.20;;;;;;4974933;28;20244;-57
2023/12/27 03:14:22;;;;;;;6.57;6.17;;;12.00;27.10;;;;;;4974983;28;20952;-57
2023/12/27 03:16:48;;;;;;;6.10;5.70;;;11.90;26.80;;;;;;4974952;28;20425;-57
2023/12/27 03:19:13;;;;;;;6.10;5.80;;;11.90;26.70;;;;;;4974486;28;20182;-57
2023/12/27 03:21:39;;;;;;;6.50;6.10;;;11.80;26.20;;;;;;4974916;28;20181;-57
2023/12/27 03:24:05;;;;;;;6.10;5.87;;;11.50;26.50;;;;;;4974970;28;20237;-57
2023/12/27 03:26:31;;;;;;;7.03;6.60;;;11.50;26.80;;;;;;4974948;28;20178;-57
2023/12/27 03:28:57;;;;;;;5.97;5.73;;;11.40;26.80;;;;;;4974458;28;20208;-57
2023/12/27 03:31:28;;;;;;;6.00;5.80;;;11.40;27.20;;;;;;4974975;28;20441;-57
2023/12/27 03:33:57;;;;;;;5.57;5.37;;;11.30;27.30;;;;;;4974793;28;20268;-57
2023/12/27 03:36:26;;;;;;;6.40;6.10;;;11.10;27.80;;;;;;4992413;28;20789;-57
2023/12/27 03:38:52;;;;;;;5.57;5.37;;;11.00;28.10;;;;;;4974386;28;20774;-58
2023/12/27 03:41:17;;;;;;;6.37;6.10;;;11.00;28.00;;;;;;4974904;28;20425;-57
2023/12/27 03:43:43;;;;;;;6.83;6.37;;;11.10;27.90;;;;;;4974706;28;20209;-57
2023/12/27 03:46:10;;;;;;;7.00;6.50;;;11.10;27.20;;;;;;4974802;28;20594;-58
2023/12/27 03:48:35;;;;;;;6.63;6.17;;;11.20;27.30;;;;;;4974687;28;20182;-57
2023/12/27 03:51:02;;;;;;;6.17;5.93;;;11.20;27.10;;;;;;4974167;28;20932;-57
2023/12/27 03:53:28;;;;;;;6.10;5.70;;;11.20;27.10;;;;;;4976760;28;20189;-57
2023/12/27 03:55:54;;;;;;;5.53;5.27;;;11.10;27.00;;;;;;4978285;28;20913;-57
2023/12/27 03:58:19;;;;;;;5.83;5.43;;;11.00;27.50;;;;;;4978343;28;20182;-57
2023/12/27 04:00:45;;;;;;;5.87;5.47;;;11.10;27.70;;;;;;4977695;28;20182;-57
2023/12/27 04:03:10;;;;;;;6.13;5.70;;;11.10;27.90;;;;;;4978201;28;20697;-57
2023/12/27 04:05:36;;;;;;;5.57;5.37;;;11.00;27.80;;;;;;4995598;28;20256;-57
2023/12/27 04:08:04;;;;;;;6.50;6.10;;;11.00;27.90;;;;;;4978239;28;20174;-57
2023/12/27 04:10:31;;;;;;;6.03;5.80;;;11.00;27.90;;;;;;4977846;28;20277;-57
2023/12/27 04:12:58;;;;;;;6.93;6.60;;;11.20;27.60;;;;;;4977932;28;20425;-57
2023/12/27 04:15:24;;;;;;;6.53;6.13;;;11.30;27.30;;;;;;4978016;28;20433;-57
2023/12/27 04:17:49;;;;;;;6.50;6.00;;;11.30;27.10;;;;;;4977865;28;20421;-57
2023/12/27 04:20:15;;;;;;;7.17;6.80;;;11.40;26.90;;;;;;4977654;28;20549;-57
2023/12/27 04:22:40;;;;;;;6.77;6.47;;;11.50;26.60;;;;;;4977621;28;20186;-59
2023/12/27 04:25:06;;;;;;;7.30;6.37;;;11.70;26.10;;;;;;4977873;28;20257;-57
2023/12/27 04:27:32;;;;;;;6.60;6.20;;;11.80;25.70;;;;;;4995337;28;20566;-57
2023/12/27 04:29:57;;;;;;;6.03;5.73;;;11.90;25.50;;;;;;4977464;28;20182;-58
2023/12/27 04:32:23;;;;;;;6.90;6.40;;;12.00;25.20;;;;;;4977679;28;20325;-57
2023/12/27 04:34:49;;;;;;;6.73;6.20;;;12.10;24.90;;;;;;4977602;28;20209;-57
2023/12/27 04:37:14;;;;;;;6.67;6.37;;;12.20;24.70;;;;;;4977633;28;20561;-57
2023/12/27 04:39:40;;;;;;;6.47;6.17;;;12.20;24.70;;;;;;4977023;28;20638;-57
2023/12/27 04:42:06;;;;;;;6.20;5.90;;;12.20;24.70;;;;;;4977509;28;20240;-57
2023/12/27 04:44:31;;;;;;;7.03;6.63;;;12.30;24.80;;;;;;4977385;28;20580;-57
2023/12/27 04:46:57;;;;;;;6.53;6.23;;;12.30;24.80;;;;;;4977503;28;20546;-57
2023/12/27 04:49:22;;;;;;;5.83;5.63;;;12.40;24.40;;;;;;4977026;28;20269;-57
2023/12/27 04:51:48;;;;;;;6.60;6.27;;;12.40;24.40;;;;;;4977222;28;20265;-58
2023/12/27 04:54:13;;;;;;;6.10;5.60;;;12.30;24.40;;;;;;4977416;28;20193;-57
2023/12/27 04:56:39;;;;;;;6.83;6.13;;;12.40;24.20;;;;;;4977338;28;20693;-58
2023/12/27 04:59:05;;;;;;;6.73;6.43;;;12.40;23.90;;;;;;4976720;28;20236;-57
2023/12/27 05:01:30;;;;;;;6.10;5.90;;;12.40;23.90;;;;;;4977089;28;20278;-57
2023/12/27 05:03:56;;;;;;;5.97;5.77;;;12.40;23.70;;;;;;4976797;28;20218;-57
2023/12/27 05:06:22;;;;;;;6.70;6.30;;;12.30;24.60;;;;;;4977213;28;20236;-57
2023/12/27 05:08:47;;;;;;;6.00;5.63;;;12.20;24.30;;;;;;4976610;28;20178;-58
2023/12/27 05:11:15;;;;;;;6.40;6.10;;;12.30;24.50;;;;;;4977002;28;20638;-57
2023/12/27 05:13:41;;;;;;;6.63;6.30;;;12.30;24.30;;;;;;4976965;28;20182;-58
2023/12/27 05:16:14;;;;;;;6.20;5.90;;;12.40;24.10;;;;;;4977000;28;20421;-57
2023/12/27 05:18:41;;;;;;;7.17;6.77;;;12.40;23.90;;;;;;4976870;28;20421;-58
2023/12/27 05:21:08;;;;;;;6.73;6.43;;;12.40;23.90;;;;;;4976242;28;20424;-57
2023/12/27 05:23:34;;;;;;;6.23;5.93;;;12.40;24.00;;;;;;4976877;28;20429;-58
2023/12/27 05:26:00;;;;;;;6.60;6.30;;;12.40;24.00;;;;;;4976888;28;20934;-59
2023/12/27 05:28:26;;;;;;;7.53;7.13;;;12.30;24.00;;;;;;4976857;28;20792;-58
2023/12/27 05:30:52;;;;;;;7.70;7.20;;;12.30;24.20;;;;;;4976313;28;20441;-58
2023/12/27 05:33:17;;;;;;;7.20;6.90;;;12.20;24.50;;;;;;4977041;28;20214;-58
2023/12/27 05:35:43;;;;;;;7.63;7.20;;;12.00;24.60;;;;;;4976718;28;20190;-58
2023/12/27 05:38:09;;;;;;;7.47;7.00;;;11.90;25.20;;;;;;4976909;28;20186;-58
2023/12/27 05:40:34;;;;;;;7.27;6.70;;;11.80;25.10;;;;;;4976302;28;20182;-59
2023/12/27 05:43:00;;;;;;;7.20;6.87;;;11.60;25.60;;;;;;4976493;28;20196;-59
2023/12/27 05:45:25;;;;;;;7.63;7.20;;;11.60;26.10;;;;;;4976590;28;20216;-59
2023/12/27 05:47:52;;;;;;;7.57;7.27;;;11.50;26.30;;;;;;4976572;28;20178;-58
2023/12/27 05:50:17;;;;;;;7.37;6.90;;;11.50;26.10;;;;;;4976190;28;20174;-58
2023/12/27 05:52:43;;;;;;;7.57;7.17;;;11.30;26.60;;;;;;4993618;28;20773;-58
2023/12/27 05:55:09;;;;;;;6.50;6.30;;;11.20;26.70;;;;;;4976464;28;20181;-58
2023/12/27 05:57:34;;;;;;;7.60;7.20;;;11.20;27.70;;;;;;4976326;28;20449;-59
2023/12/27 06:00:00;;;;;;;7.33;7.03;;;11.40;26.80;;;;;;4975815;28;20217;-58
2023/12/27 06:02:26;;;;;;;7.83;7.43;;;11.50;26.30;;;;;;4976140;28;20186;-58
2023/12/27 06:04:51;;;;;;;7.50;7.20;;;11.60;26.10;;;;;;4975902;28;20209;-58
2023/12/27 06:07:17;;;;;;;7.60;7.20;;;11.70;25.80;;;;;;4976112;28;20185;-58
2023/12/27 06:09:43;;;;;;;8.60;8.10;;;11.70;25.70;;;;;;4975457;28;20184;-57
2023/12/27 06:12:08;;;;;;;8.83;8.23;;;11.80;25.60;;;;;;4975898;28;20240;-58
2023/12/27 06:14:38;;;;;;;7.70;7.20;;;11.80;25.40;;;;;;4976119;28;20178;-58
2023/12/27 06:17:04;;;;;;;7.47;7.07;;;11.80;25.30;;;;;;4975723;28;20185;-58
2023/12/27 06:19:30;;;;;;;7.50;7.13;;;11.80;25.40;;;;;;4975086;28;20487;-57
2023/12/27 06:21:56;;;;;;;8.00;7.60;;;11.80;25.20;;;;;;4972074;28;21085;-57
2023/12/27 06:24:22;;;;;;;7.83;7.23;;;11.80;25.20;;;;;;4974109;28;20498;-57
2023/12/27 06:26:47;;;;;;;7.77;7.37;;;11.80;25.00;;;;;;4975197;28;20178;-57
2023/12/27 06:29:13;;;;;;;8.30;7.90;;;11.80;25.10;;;;;;4964608;28;20183;-57
2023/12/27 06:31:39;;;;;;;8.80;8.20;;;11.50;25.30;;;;;;4973904;28;20766;-57
2023/12/27 06:34:04;;;;;;;9.10;8.50;;;11.10;26.80;;;;;;4975263;28;20697;-57
2023/12/27 06:36:30;;;;;;;9.63;9.00;;;10.80;27.70;;;;;;4974808;28;20647;-58
2023/12/27 06:38:55;;;;;;;10.60;10.00;;;10.70;27.90;;;;;;4973553;28;20185;-58
2023/12/27 06:41:21;;;;;;;8.97;8.40;;;10.70;27.90;;;;;;4974680;28;20224;-59
2023/12/27 06:43:47;;;;;;;8.60;8.20;;;10.60;28.00;;;;;;4973982;28;20213;-58
2023/12/27 06:46:12;;;;;;;8.80;8.30;;;10.70;28.10;;;;;;4974268;28;20184;-59
2023/12/27 06:48:39;;;;;;;7.90;7.50;;;10.90;27.70;;;;;;4973088;28;20178;-58
2023/12/27 06:51:06;;;;;;;8.90;8.20;;;10.90;27.70;;;;;;4962456;28;20597;-58
2023/12/27 06:53:35;;;;;;;8.67;8.27;;;10.80;27.70;;;;;;4972237;28;20428;-58
2023/12/27 06:56:01;;;;;;;8.83;8.43;;;10.90;27.60;;;;;;4962795;28;20422;-58
2023/12/27 06:58:27;;;;;;;8.10;7.70;;;11.10;27.20;;;;;;4969350;28;20436;-59
2023/12/27 07:00:52;;;;;;;9.67;9.07;;;11.20;26.70;;;;;;4973892;28;20174;-59
2023/12/27 07:03:18;;;;;;;8.30;7.73;;;11.20;26.40;;;;;;4965583;28;20272;-59
2023/12/27 07:05:44;;;;;;;10.00;9.30;;;10.90;26.80;;;;;;4965094;28;20687;-58
2023/12/27 07:08:09;;;;;;;11.20;10.20;;;10.70;27.60;;;;;;4971219;28;20414;-58
2023/12/27 07:10:35;;;;;;;11.33;10.53;;;10.50;28.00;;;;;;4973586;28;20545;-58
2023/12/27 07:13:01;;;;;;;8.77;8.17;;;10.30;28.60;;;;;;4974052;28;20189;-58
2023/12/27 07:15:27;;;;;;;9.40;8.70;;;10.10;29.10;;;;;;4974208;28;20197;-57
2023/12/27 07:17:53;;;;;;;9.83;8.77;;;10.00;29.70;;;;;;4973707;28;20778;-58
2023/12/27 07:20:18;;;;;;;9.07;8.33;;;9.80;31.00;;;;;;4972733;28;20534;-58
2023/12/27 07:22:45;;;;;;;8.57;7.97;;;9.80;31.10;;;;;;4973640;28;20210;-58
2023/12/27 07:25:11;;;;;;;8.10;7.60;;;9.80;31.60;;;;;;4973574;28;20263;-58
2023/12/27 07:27:36;;;;;;;8.30;7.50;;;9.80;31.50;;;;;;4976806;28;20433;-58
2023/12/27 07:30:04;;;;;;;8.13;7.63;;;9.90;31.30;;;;;;4977698;28;20186;-58
2023/12/27 07:32:30;;;;;;;8.90;8.40;;;9.90;31.70;;;;;;4977331;28;20560;-59
2023/12/27 07:34:57;;;;;;;7.93;7.40;;;10.00;30.00;;;;;;4977939;28;20412;-60
2023/12/27 07:37:26;;;;;;;8.00;7.50;;;10.00;30.80;;;;;;4977973;28;20178;-58
2023/12/27 07:39:53;;;;;;;8.60;8.20;;;10.10;29.60;;;;;;4976924;28;20424;-58
2023/12/27 07:42:19;;;;;;;7.93;7.43;;;10.30;29.80;;;;;;4977113;28;20437;-58
2023/12/27 07:44:44;;;;;;;8.03;7.60;;;10.30;29.40;;;;;;4984705;28;20474;-59
2023/12/27 07:47:10;;;;;;;8.53;7.83;;;10.50;29.20;;;;;;4977628;28;20960;-58
2023/12/27 07:49:36;;;;;;;7.93;7.43;;;10.60;28.70;;;;;;4992825;28;20194;-58
2023/12/27 07:52:01;;;;;;;8.40;7.90;;;10.60;28.90;;;;;;4976871;28;20549;-60
2023/12/27 07:54:27;;;;;;;8.53;7.93;;;10.80;28.50;;;;;;4976227;28;20182;-59
2023/12/27 07:56:52;;;;;;;8.70;8.10;;;10.90;28.00;;;;;;4976713;28;20186;-59
2023/12/27 07:59:18;;;;;;;8.10;7.70;;;11.10;28.00;;;;;;4978649;28;20186;-58
2023/12/27 08:01:45;;;;;;;7.90;7.30;;;11.20;27.70;;;;;;4976059;28;20182;-58
2023/12/27 08:04:11;;;;;;;8.70;8.10;;;11.30;27.40;;;;;;4976742;28;20205;-58
2023/12/27 08:06:36;;;;;;;8.77;8.17;;;11.40;27.30;;;;;;4979558;28;20424;-58
2023/12/27 08:09:02;;;;;;;8.03;7.53;;;11.50;27.40;;;;;;4983713;28;20174;-58
2023/12/27 08:11:27;;;;;;;8.70;8.20;;;11.50;27.00;;;;;;4974852;28;20659;-58
2023/12/27 08:13:53;;;;;;;8.80;8.10;;;11.50;26.40;;;;;;4976762;28;20185;-59
2023/12/27 08:16:19;;;;;;;8.63;8.00;;;11.40;26.40;;;;;;4984397;28;20194;-59
2023/12/27 08:18:44;;;;;;;8.90;8.30;;;11.20;27.30;;;;;;4979228;28;20197;-59
2023/12/27 08:21:10;;;;;;;8.10;7.57;;;10.90;27.10;;;;;;4976337;28;20180;-59
2023/12/27 08:23:37;;;;;;;8.93;8.30;;;10.80;27.30;;;;;;4976017;28;20561;-59
2023/12/27 08:26:06;;;;;;;9.27;8.87;;;10.60;27.90;;;;;;4976793;28;20593;-59
2023/12/27 08:28:33;;;;;;;9.10;8.60;;;10.50;28.10;;;;;;4978376;28;20898;-59
2023/12/27 08:31:00;;;;;;;9.27;8.63;;;10.30;28.60;;;;;;4982801;28;20464;-58
2023/12/27 08:33:25;;;;;;;8.50;8.10;;;10.30;28.80;;;;;;4984832;28;20432;-58
2023/12/27 08:35:51;;;;;;;9.37;8.70;;;10.20;29.30;;;;;;4984756;28;20419;-58
2023/12/27 08:38:17;;;;;;;9.30;8.70;;;10.20;29.60;;;;;;4985338;28;20210;-58
2023/12/27 08:40:42;;;;;;;9.80;9.10;;;10.20;29.60;;;;;;4975934;28;20193;-59
2023/12/27 08:43:08;;;;;;;9.00;8.50;;;10.10;29.80;;;;;;4987967;28;20259;-59
2023/12/27 08:45:34;;;;;;;10.80;9.83;;;10.10;29.70;;;;;;4976086;28;20216;-57
2023/12/27 08:48:00;;;;;;;8.53;8.03;;;9.80;31.40;;;;;;4981819;28;20186;-58
2023/12/27 08:50:25;;;;;;;9.90;9.13;;;9.80;32.30;;;;;;4976224;28;20443;-58
2023/12/27 08:52:51;;;;;;;8.67;8.07;;;9.70;32.20;;;;;;4979265;28;20647;-57
2023/12/27 08:55:17;;;;;;;10.03;9.17;;;9.70;32.20;;;;;;4985976;28;20186;-57
2023/12/27 08:57:42;;;;;;;9.33;8.63;;;9.80;32.30;;;;;;4977053;28;20186;-58
2023/12/27 09:00:10;;;;;;;8.70;8.20;;;10.00;30.30;;;;;;4983893;28;20209;-58
2023/12/27 09:02:37;;;;;;;9.37;8.80;;;10.10;30.10;;;;;;4976926;28;20194;-58
2023/12/27 09:05:04;;;;;;;9.57;8.97;;;10.30;30.00;;;;;;4976701;28;20472;-58
2023/12/27 09:07:31;;;;;;;10.03;9.43;;;10.40;29.00;;;;;;4978602;28;20425;-59
2023/12/27 09:09:57;;;;;;;9.50;8.90;;;10.40;29.00;;;;;;4978152;28;20471;-58
2023/12/27 09:12:23;;;;;;;8.50;8.00;;;10.40;28.50;;;;;;4983359;28;20464;-58
2023/12/27 09:14:48;;;;;;;8.83;8.03;;;10.20;28.90;;;;;;4974320;28;20511;-59
2023/12/27 09:17:15;;;;;;;8.60;8.10;;;10.00;29.00;;;;;;4982807;28;20189;-59
2023/12/27 09:19:42;;;;;;;9.00;8.40;;;9.90;29.70;;;;;;4982930;28;20189;-59
2023/12/27 09:22:08;;;;;;;8.30;7.90;;;9.70;30.00;;;;;;4975917;28;20413;-55
2023/12/27 09:24:34;;;;;;;8.87;8.27;;;9.60;30.00;;;;;;4976268;28;20486;-58
2023/12/27 09:27:00;;;;;;;8.00;7.60;;;9.60;29.80;;;;;;4970054;28;20532;-57
2023/12/27 09:29:25;;;;;;;9.03;8.33;;;9.60;29.50;;;;;;4979591;28;20519;-58
2023/12/27 09:31:51;;;;;;;9.17;8.57;;;9.70;29.30;;;;;;4983186;28;20232;-58
2023/12/27 09:34:16;;;;;;;8.70;8.20;;;9.70;29.30;;;;;;4974445;28;20276;-59
2023/12/27 09:36:42;;;;;;;9.13;8.40;;;9.70;29.50;;;;;;4981536;28;20185;-58
2023/12/27 09:39:11;;;;;;;9.97;9.10;;;9.60;29.50;;;;;;4984008;28;20248;-59
2023/12/27 09:41:37;;;;;;;8.67;8.07;;;9.70;29.70;;;;;;4981892;28;20257;-58
2023/12/27 09:44:06;;;;;;;8.50;8.00;;;9.60;29.70;;;;;;4982880;28;20464;-59
2023/12/27 09:46:34;;;;;;;8.70;8.27;;;9.70;29.90;;;;;;4981134;28;20205;-58
2023/12/27 09:49:00;;;;;;;8.37;7.77;;;9.90;29.60;;;;;;4976712;28;20453;-58
2023/12/27 09:51:26;;;;;;;8.70;8.00;;;9.80;29.20;;;;;;4979542;28;20925;-58
2023/12/27 09:53:52;;;;;;;9.30;8.70;;;9.70;30.00;;;;;;4982696;28;20233;-57
2023/12/27 09:56:19;;;;;;;12.60;8.47;;;9.70;30.00;;;;;;4975385;28;20503;-58
2023/12/27 09:58:48;;;;;;;8.83;8.33;;;9.60;30.20;;;;;;4974131;28;20436;-58
2023/12/27 10:01:15;;;;;;;9.00;8.50;;;9.60;30.40;;;;;;4974692;28;20443;-58
2023/12/27 10:03:43;;;;;;;8.00;7.50;;;9.70;30.00;;;;;;4974557;28;20441;-58
2023/12/27 10:06:20;;;;;;;9.10;8.30;;;9.80;29.90;;;;;;4980335;28;20425;-58
2023/12/27 10:08:46;;;;;;;10.40;9.27;;;9.80;29.80;;;;;;4989364;28;20782;-58
2023/12/27 10:11:12;;;;;;;8.40;7.80;;;9.80;29.90;;;;;;4982250;28;20444;-58
2023/12/27 10:13:41;;;;;;;8.10;7.70;;;9.90;29.60;;;;;;4977954;28;20640;-58
2023/12/27 10:16:07;;;;;;;7.90;7.50;;;10.00;28.50;;;;;;4974283;28;20522;-58
2023/12/27 10:18:32;;;;;;;7.77;7.33;;;10.10;28.40;;;;;;4985301;28;20422;-58
2023/12/27 10:20:58;;;;;;;8.60;8.00;;;10.10;28.20;;;;;;4982021;28;20477;-58
2023/12/27 10:23:24;;;;;;;7.73;7.33;;;10.10;27.50;;;;;;4977553;28;20182;-57
2023/12/27 10:25:53;;;;;;;8.23;7.50;;;10.10;25.60;;;;;;4974149;28;20221;-58
2023/12/27 10:28:25;;;;;;;7.97;7.43;;;10.10;24.60;;;;;;4974266;28;20448;-58
2023/12/27 10:30:51;;;;;;;8.87;8.30;;;10.20;25.00;;;;;;4973645;28;20956;-58
2023/12/27 10:33:19;;;;;;;9.13;8.50;;;10.40;24.50;;;;;;4992448;28;20413;-58
2023/12/27 10:35:45;;;;;;;8.70;8.00;;;10.40;24.70;;;;;;4978985;28;20467;-58
2023/12/27 10:38:11;;;;;;;8.00;7.57;;;10.60;24.90;;;;;;4973751;28;20436;-58
2023/12/27 10:40:39;;;;;;;8.37;7.67;;;10.70;24.70;;;;;;4973905;28;20190;-58
2023/12/27 10:43:05;;;;;;;7.53;7.03;;;10.70;24.50;;;;;;4975495;28;20678;-58
2023/12/27 10:45:31;;;;;;;6.83;6.43;;;10.70;24.60;;;;;;4983829;28;20496;-58
2023/12/27 10:47:59;;;;;;;8.37;7.87;;;10.70;24.70;;;;;;4974892;28;20269;-58
2023/12/27 10:50:26;;;;;;;8.87;8.33;;;10.60;23.60;;;;;;4981975;28;20421;-58
2023/12/27 10:53:03;;;;;;;8.50;7.80;;;10.70;23.70;;;;;;4968514;28;20839;-58
2023/12/27 10:55:29;;;;;;;7.53;7.03;;;10.80;23.30;;;;;;4979415;28;20939;-58
2023/12/27 10:57:56;;;;;;;7.40;7.00;;;10.90;22.40;;;;;;4982142;28;20424;-58
2023/12/27 11:00:22;;;;;;;6.80;6.43;;;11.00;21.20;;;;;;4972739;28;20421;-58
2023/12/27 11:02:51;;;;;;;7.43;6.83;;;10.90;18.70;;;;;;4971810;28;20499;-58
2023/12/27 11:05:20;;;;;;;6.87;6.40;;;10.90;18.70;;;;;;4981258;28;20461;-58
2023/12/27 11:07:46;;;;;;;7.03;6.63;;;10.90;18.60;;;;;;4980324;28;20424;-58
2023/12/27 11:10:16;;;;;;;6.80;6.50;;;11.00;18.20;;;;;;4977296;28;20421;-58
2023/12/27 11:12:47;;;;;;;6.83;6.43;;;11.10;17.70;;;;;;4973245;28;20467;-59
2023/12/27 11:15:20;;;;;;;7.30;7.00;;;11.10;17.30;;;;;;4975677;28;20819;-59
2023/12/27 11:17:48;;;;;;;8.20;7.47;;;11.10;15.70;;;;;;4972174;28;20425;-59
2023/12/27 11:20:16;;;;;;;6.60;6.10;;;11.20;16.00;;;;;;4975838;28;20428;-59
2023/12/27 11:22:45;;;;;;;6.77;6.40;;;11.20;15.80;;;;;;4975296;28;20433;-59
2023/12/27 11:25:12;;;;;;;6.50;6.03;;;11.20;15.70;;;;;;4973614;28;20478;-58
2023/12/27 11:27:39;;;;;;;6.63;6.30;;;11.30;15.80;;;;;;4974996;28;20548;-58
2023/12/27 11:30:12;;;;;;;9.07;8.57;;;11.40;15.50;;;;;;4973777;28;20424;-59
2023/12/27 11:32:40;;;;;;;6.23;5.83;;;11.50;14.70;;;;;;4973128;28;20785;-58
2023/12/27 11:35:09;;;;;;;5.90;5.50;;;11.60;14.60;;;;;;4981204;28;20444;-59
2023/12/27 11:37:34;;;;;;;6.50;6.10;;;11.70;14.50;;;;;;4984245;28;20496;-58
2023/12/27 11:40:00;;;;;;;6.47;6.07;;;11.80;14.70;;;;;;4982219;28;20475;-59
2023/12/27 11:42:26;;;;;;;6.27;5.97;;;11.80;13.90;;;;;;4974795;28;20244;-58
2023/12/27 11:44:54;;;;;;;7.33;7.03;;;11.90;14.20;;;;;;4973401;28;20469;-59
2023/12/27 11:47:20;;;;;;;7.27;6.93;;;12.00;13.40;;;;;;4971470;28;20174;-58
2023/12/27 11:50:08;;;;;;;6.53;6.23;;;12.00;13.20;;;;;;4972382;28;20785;-59
2023/12/27 11:52:40;;;;;;;6.60;6.20;;;12.10;14.10;;;;;;4973398;28;20417;-59
2023/12/27 11:55:16;;;;;;;6.30;5.90;;;12.10;13.30;;;;;;4972554;28;20782;-58
2023/12/27 11:57:45;;;;;;;7.17;6.67;;;12.20;13.20;;;;;;4972843;28;20433;-58
2023/12/27 12:00:30;;;;;;;6.50;6.20;;;12.40;14.70;;;;;;4989544;28;20417;-58
2023/12/27 12:03:08;;;;;;;5.63;5.33;;;12.40;13.40;;;;;;4972471;28;20919;-58
2023/12/27 12:06:01;;;;;;;5.30;5.10;;;12.50;13.50;;;;;;4970991;28;20479;-58
2023/12/27 12:08:57;;;;;;;6.40;6.10;;;12.60;12.60;;;;;;4972681;28;20440;-58
2023/12/27 12:11:24;;;;;;;5.70;5.40;;;12.60;12.80;;;;;;4957234;28;20421;-58
2023/12/27 12:13:50;;;;;;;6.87;6.47;;;12.70;12.20;;;;;;4974456;28;20429;-58
2023/12/27 12:16:15;;;;;;;6.10;5.80;;;12.60;12.30;;;;;;4977258;28;20421;-57
2023/12/27 12:18:42;;;;;;;5.70;5.40;;;12.70;12.50;;;;;;4976143;28;20186;-57
2023/12/27 12:21:09;;;;;;;5.80;5.50;;;12.90;13.00;;;;;;4976108;28;20174;-56
2023/12/27 12:23:34;;;;;;;6.50;6.00;;;13.00;13.20;;;;;;4976127;28;20433;-56
2023/12/27 12:26:01;;;;;;;6.40;5.80;;;13.00;12.70;;;;;;4975634;28;20441;-57
2023/12/27 12:28:28;;;;;;;8.10;7.30;;;13.00;13.70;;;;;;4975282;28;20186;-57
2023/12/27 12:30:56;;;;;;;5.97;5.50;;;13.00;14.10;;;;;;4979721;28;20463;-57
2023/12/27 12:33:22;;;;;;;6.27;5.87;;;13.00;13.80;;;;;;4977668;28;20452;-57
2023/12/27 12:35:52;;;;;;;5.93;5.53;;;13.10;14.20;;;;;;4977061;28;20441;-57
2023/12/27 12:38:18;;;;;;;5.90;5.40;;;13.10;13.80;;;;;;4970102;28;20426;-59
2023/12/27 12:40:47;;;;;;;5.10;4.90;;;13.10;13.70;;;;;;4970789;28;20517;-62
2023/12/27 12:43:16;;;;;;;6.00;5.50;;;13.20;14.20;;;;;;4976551;28;20708;-58
2023/12/27 12:45:43;;;;;;;6.43;6.00;;;13.20;13.40;;;;;;4976000;28;20559;-58